sensor_id;sensor_type;location;lat;lon;timestamp;pressure;altitude;pressure_sealevel;temperature;humidity
81162;BME280;70638;-33.792;151.032;2024-02-15T00:02:05;101635.98;;;18.37;100.00
81162;BME280;70638;-33.792;151.032;2024-02-15T00:04:36;101637.56;;;18.43;100.00
81162;BME280;70638;-33.792;151.032;2024-02-15T00:07:06;101639.26;;;18.44;100.00
81162;BME280;70638;-33.792;151.032;2024-02-15T00:09:36;101641.52;;;18.49;100.00
81162;BME280;70638;-33.792;151.032;2024-02-15T00:12:07;101641.93;;;18.58;100.00
81162;BME280;70638;-33.792;151.032;2024-02-15T00:14:40;101641.47;;;18.44;100.00
81162;BME280;70638;-33.792;151.032;2024-02-15T00:17:10;101647.47;;;18.34;100.00
81162;BME280;70638;-33.792;151.032;2024-02-15T00:19:37;101646.30;;;18.37;100.00
81162;BME280;70638;-33.792;151.032;2024-02-15T00:22:15;101652.44;;;18.30;100.00
81162;BME280;70638;-33.792;151.032;2024-02-15T00:24:41;101641.62;;;18.40;100.00
81162;BME280;70638;-33.792;151.032;2024-02-15T00:27:08;101647.27;;;18.33;100.00
81162;BME280;70638;-33.792;151.032;2024-02-15T00:29:38;101643.08;;;18.39;100.00
81162;BME280;70638;-33.792;151.032;2024-02-15T00:32:09;101648.77;;;18.36;100.00
81162;BME280;70638;-33.792;151.032;2024-02-15T00:34:40;101649.88;;;18.41;100.00
81162;BME280;70638;-33.792;151.032;2024-02-15T00:37:09;101646.16;;;18.42;100.00
81162;BME280;70638;-33.792;151.032;2024-02-15T00:39:40;101648.30;;;18.57;100.00
81162;BME280;70638;-33.792;151.032;2024-02-15T00:42:11;101646.17;;;18.47;100.00
81162;BME280;70638;-33.792;151.032;2024-02-15T00:44:41;101643.81;;;18.48;100.00
81162;BME280;70638;-33.792;151.032;2024-02-15T00:47:12;101645.05;;;18.57;100.00
81162;BME280;70638;-33.792;151.032;2024-02-15T00:49:42;101648.05;;;18.73;100.00
81162;BME280;70638;-33.792;151.032;2024-02-15T00:52:12;101643.56;;;18.62;100.00
81162;BME280;70638;-33.792;151.032;2024-02-15T00:54:42;101644.12;;;18.55;100.00
81162;BME280;70638;-33.792;151.032;2024-02-15T00:57:13;101641.33;;;18.45;100.00
81162;BME280;70638;-33.792;151.032;2024-02-15T00:59:52;101638.38;;;18.50;100.00
81162;BME280;70638;-33.792;151.032;2024-02-15T01:02:14;101637.89;;;18.39;100.00
81162;BME280;70638;-33.792;151.032;2024-02-15T01:04:47;101638.47;;;18.26;100.00
81162;BME280;70638;-33.792;151.032;2024-02-15T01:07:14;101637.95;;;18.28;100.00
81162;BME280;70638;-33.792;151.032;2024-02-15T01:09:45;101632.09;;;18.29;100.00
81162;BME280;70638;-33.792;151.032;2024-02-15T01:12:15;101633.16;;;18.45;100.00
81162;BME280;70638;-33.792;151.032;2024-02-15T01:14:45;101634.09;;;18.59;100.00
81162;BME280;70638;-33.792;151.032;2024-02-15T01:17:16;101635.50;;;18.54;100.00
81162;BME280;70638;-33.792;151.032;2024-02-15T01:19:46;101634.47;;;18.50;100.00
81162;BME280;70638;-33.792;151.032;2024-02-15T01:22:22;101635.14;;;18.51;100.00
81162;BME280;70638;-33.792;151.032;2024-02-15T01:24:48;101641.12;;;18.87;100.00
81162;BME280;70638;-33.792;151.032;2024-02-15T01:27:21;101639.06;;;18.85;100.00
81162;BME280;70638;-33.792;151.032;2024-02-15T01:29:48;101641.13;;;18.78;100.00
81162;BME280;70638;-33.792;151.032;2024-02-15T01:32:19;101642.15;;;18.75;100.00
81162;BME280;70638;-33.792;151.032;2024-02-15T01:34:49;101642.86;;;18.73;100.00
81162;BME280;70638;-33.792;151.032;2024-02-15T01:37:19;101639.28;;;18.46;100.00
81162;BME280;70638;-33.792;151.032;2024-02-15T01:39:50;101638.64;;;18.51;100.00
81162;BME280;70638;-33.792;151.032;2024-02-15T01:42:20;101638.28;;;18.61;100.00
81162;BME280;70638;-33.792;151.032;2024-02-15T01:44:52;101637.88;;;18.65;100.00
81162;BME280;70638;-33.792;151.032;2024-02-15T01:47:26;101636.55;;;18.55;100.00
81162;BME280;70638;-33.792;151.032;2024-02-15T01:49:55;101636.30;;;18.60;100.00
81162;BME280;70638;-33.792;151.032;2024-02-15T01:52:23;101635.77;;;18.70;100.00
81162;BME280;70638;-33.792;151.032;2024-02-15T01:54:53;101636.43;;;18.76;100.00
81162;BME280;70638;-33.792;151.032;2024-02-15T01:57:26;101630.55;;;18.89;100.00
81162;BME280;70638;-33.792;151.032;2024-02-15T01:59:53;101631.95;;;18.99;100.00
81162;BME280;70638;-33.792;151.032;2024-02-15T02:02:25;101629.41;;;18.98;100.00
81162;BME280;70638;-33.792;151.032;2024-02-15T02:04:55;101624.11;;;19.00;100.00
81162;BME280;70638;-33.792;151.032;2024-02-15T02:07:25;101624.88;;;18.96;100.00
81162;BME280;70638;-33.792;151.032;2024-02-15T02:09:55;101619.18;;;19.02;100.00
81162;BME280;70638;-33.792;151.032;2024-02-15T02:12:29;101615.63;;;19.11;100.00
81162;BME280;70638;-33.792;151.032;2024-02-15T02:14:56;101610.78;;;19.30;100.00
81162;BME280;70638;-33.792;151.032;2024-02-15T02:17:26;101613.65;;;19.01;100.00
81162;BME280;70638;-33.792;151.032;2024-02-15T02:20:00;101612.44;;;18.96;100.00
81162;BME280;70638;-33.792;151.032;2024-02-15T02:22:27;101614.12;;;18.93;100.00
81162;BME280;70638;-33.792;151.032;2024-02-15T02:25:05;101616.70;;;18.80;100.00
81162;BME280;70638;-33.792;151.032;2024-02-15T02:27:29;101611.88;;;18.88;100.00
81162;BME280;70638;-33.792;151.032;2024-02-15T02:30:01;101611.82;;;18.94;100.00
81162;BME280;70638;-33.792;151.032;2024-02-15T02:32:29;101611.06;;;18.97;100.00
81162;BME280;70638;-33.792;151.032;2024-02-15T02:35:03;101609.70;;;18.97;100.00
81162;BME280;70638;-33.792;151.032;2024-02-15T02:37:31;101613.68;;;18.92;100.00
81162;BME280;70638;-33.792;151.032;2024-02-15T02:40:04;101609.59;;;18.91;100.00
81162;BME280;70638;-33.792;151.032;2024-02-15T02:42:30;101608.83;;;19.12;100.00
81162;BME280;70638;-33.792;151.032;2024-02-15T02:45:00;101606.00;;;19.06;100.00
81162;BME280;70638;-33.792;151.032;2024-02-15T02:47:31;101604.34;;;18.95;100.00
81162;BME280;70638;-33.792;151.032;2024-02-15T02:50:01;101604.27;;;19.05;100.00
81162;BME280;70638;-33.792;151.032;2024-02-15T02:52:31;101605.33;;;19.09;100.00
81162;BME280;70638;-33.792;151.032;2024-02-15T02:55:02;101604.11;;;19.08;100.00
81162;BME280;70638;-33.792;151.032;2024-02-15T02:57:35;101603.28;;;19.13;100.00
81162;BME280;70638;-33.792;151.032;2024-02-15T03:00:07;101604.16;;;19.17;100.00
81162;BME280;70638;-33.792;151.032;2024-02-15T03:02:37;101599.36;;;19.09;100.00
81162;BME280;70638;-33.792;151.032;2024-02-15T03:05:07;101600.67;;;19.00;100.00
81162;BME280;70638;-33.792;151.032;2024-02-15T03:07:35;101600.06;;;19.17;100.00
81162;BME280;70638;-33.792;151.032;2024-02-15T03:10:09;101600.33;;;19.21;100.00
81162;BME280;70638;-33.792;151.032;2024-02-15T03:12:38;101594.69;;;19.18;100.00
81162;BME280;70638;-33.792;151.032;2024-02-15T03:15:07;101593.68;;;19.21;100.00
81162;BME280;70638;-33.792;151.032;2024-02-15T03:17:37;101591.73;;;19.23;100.00
81162;BME280;70638;-33.792;151.032;2024-02-15T03:20:20;101592.82;;;19.14;100.00
81162;BME280;70638;-33.792;151.032;2024-02-15T03:22:38;101591.86;;;19.09;100.00
81162;BME280;70638;-33.792;151.032;2024-02-15T03:25:13;101591.30;;;19.17;100.00
81162;BME280;70638;-33.792;151.032;2024-02-15T03:27:39;101589.50;;;19.17;100.00
81162;BME280;70638;-33.792;151.032;2024-02-15T03:30:09;101590.38;;;19.29;100.00
81162;BME280;70638;-33.792;151.032;2024-02-15T03:32:39;101587.91;;;19.29;100.00
81162;BME280;70638;-33.792;151.032;2024-02-15T03:35:10;101593.09;;;19.23;100.00
81162;BME280;70638;-33.792;151.032;2024-02-15T03:37:42;101591.66;;;19.29;100.00
81162;BME280;70638;-33.792;151.032;2024-02-15T03:40:11;101588.98;;;19.15;100.00
81162;BME280;70638;-33.792;151.032;2024-02-15T03:42:42;101589.15;;;19.15;100.00
81162;BME280;70638;-33.792;151.032;2024-02-15T03:45:13;101589.52;;;19.20;100.00
81162;BME280;70638;-33.792;151.032;2024-02-15T03:47:43;101586.70;;;19.23;100.00
81162;BME280;70638;-33.792;151.032;2024-02-15T03:50:13;101591.50;;;19.34;100.00
81162;BME280;70638;-33.792;151.032;2024-02-15T03:52:44;101583.70;;;19.21;100.00
81162;BME280;70638;-33.792;151.032;2024-02-15T03:55:14;101586.53;;;19.20;100.00
81162;BME280;70638;-33.792;151.032;2024-02-15T03:57:47;101584.02;;;19.10;100.00
81162;BME280;70638;-33.792;151.032;2024-02-15T04:00:21;101581.42;;;19.05;100.00
81162;BME280;70638;-33.792;151.032;2024-02-15T04:02:45;101584.33;;;19.01;100.00
81162;BME280;70638;-33.792;151.032;2024-02-15T04:05:16;101579.84;;;19.09;100.00
81162;BME280;70638;-33.792;151.032;2024-02-15T04:07:46;101578.20;;;19.03;100.00
81162;BME280;70638;-33.792;151.032;2024-02-15T04:10:16;101573.48;;;19.00;100.00
81162;BME280;70638;-33.792;151.032;2024-02-15T04:12:47;101571.91;;;19.10;100.00
81162;BME280;70638;-33.792;151.032;2024-02-15T04:15:20;101563.98;;;19.13;100.00
81162;BME280;70638;-33.792;151.032;2024-02-15T04:17:48;101559.22;;;19.19;100.00
81162;BME280;70638;-33.792;151.032;2024-02-15T04:20:20;101555.83;;;19.17;100.00
81162;BME280;70638;-33.792;151.032;2024-02-15T04:22:52;101552.84;;;19.20;100.00
81162;BME280;70638;-33.792;151.032;2024-02-15T04:25:21;101549.09;;;19.30;100.00
81162;BME280;70638;-33.792;151.032;2024-02-15T04:27:50;101548.73;;;19.18;100.00
81162;BME280;70638;-33.792;151.032;2024-02-15T04:30:25;101552.86;;;19.26;100.00
81162;BME280;70638;-33.792;151.032;2024-02-15T04:32:57;101549.61;;;19.20;100.00
81162;BME280;70638;-33.792;151.032;2024-02-15T04:35:21;101545.94;;;19.20;100.00
81162;BME280;70638;-33.792;151.032;2024-02-15T04:37:52;101543.80;;;19.24;100.00
81162;BME280;70638;-33.792;151.032;2024-02-15T04:40:22;101540.34;;;19.39;100.00
81162;BME280;70638;-33.792;151.032;2024-02-15T04:42:53;101536.41;;;19.35;100.00
81162;BME280;70638;-33.792;151.032;2024-02-15T04:45:25;101532.92;;;19.43;100.00
81162;BME280;70638;-33.792;151.032;2024-02-15T04:47:55;101530.05;;;19.51;100.00
81162;BME280;70638;-33.792;151.032;2024-02-15T04:50:24;101532.73;;;19.26;100.00
81162;BME280;70638;-33.792;151.032;2024-02-15T04:52:54;101528.45;;;19.18;100.00
81162;BME280;70638;-33.792;151.032;2024-02-15T04:55:28;101522.83;;;19.30;100.00
81162;BME280;70638;-33.792;151.032;2024-02-15T04:57:57;101530.16;;;19.21;100.00
81162;BME280;70638;-33.792;151.032;2024-02-15T05:00:28;101527.84;;;19.21;100.00
81162;BME280;70638;-33.792;151.032;2024-02-15T05:02:58;101523.59;;;19.20;100.00
81162;BME280;70638;-33.792;151.032;2024-02-15T05:05:31;101519.67;;;19.18;100.00
81162;BME280;70638;-33.792;151.032;2024-02-15T05:07:59;101521.55;;;19.21;100.00
81162;BME280;70638;-33.792;151.032;2024-02-15T05:10:32;101520.44;;;19.14;100.00
81162;BME280;70638;-33.792;151.032;2024-02-15T05:13:04;101520.86;;;19.21;100.00
81162;BME280;70638;-33.792;151.032;2024-02-15T05:15:30;101521.30;;;19.23;100.00
81162;BME280;70638;-33.792;151.032;2024-02-15T05:18:00;101525.92;;;19.28;100.00
81162;BME280;70638;-33.792;151.032;2024-02-15T05:20:30;101520.88;;;19.19;100.00
81162;BME280;70638;-33.792;151.032;2024-02-15T05:23:04;101522.05;;;19.13;100.00
81162;BME280;70638;-33.792;151.032;2024-02-15T05:25:35;101520.62;;;19.20;100.00
81162;BME280;70638;-33.792;151.032;2024-02-15T05:28:03;101522.91;;;19.18;100.00
81162;BME280;70638;-33.792;151.032;2024-02-15T05:30:35;101524.55;;;19.16;100.00
81162;BME280;70638;-33.792;151.032;2024-02-15T05:33:04;101527.56;;;19.11;100.00
81162;BME280;70638;-33.792;151.032;2024-02-15T05:35:34;101518.20;;;19.09;100.00
81162;BME280;70638;-33.792;151.032;2024-02-15T05:38:08;101521.27;;;19.13;100.00
81162;BME280;70638;-33.792;151.032;2024-02-15T05:40:35;101515.45;;;19.08;100.00
81162;BME280;70638;-33.792;151.032;2024-02-15T05:43:05;101509.75;;;19.11;100.00
81162;BME280;70638;-33.792;151.032;2024-02-15T05:45:41;101510.38;;;19.20;100.00
81162;BME280;70638;-33.792;151.032;2024-02-15T05:48:08;101509.17;;;19.15;100.00
81162;BME280;70638;-33.792;151.032;2024-02-15T05:50:36;101506.34;;;19.14;100.00
81162;BME280;70638;-33.792;151.032;2024-02-15T05:53:07;101498.62;;;19.17;100.00
81162;BME280;70638;-33.792;151.032;2024-02-15T05:55:42;101506.20;;;19.26;100.00
81162;BME280;70638;-33.792;151.032;2024-02-15T05:58:19;101507.26;;;19.33;100.00
81162;BME280;70638;-33.792;151.032;2024-02-15T06:00:48;101509.89;;;19.34;100.00
81162;BME280;70638;-33.792;151.032;2024-02-15T06:03:14;101510.13;;;19.32;100.00
81162;BME280;70638;-33.792;151.032;2024-02-15T06:05:40;101510.16;;;19.33;100.00
81162;BME280;70638;-33.792;151.032;2024-02-15T06:08:24;101511.86;;;19.36;100.00
81162;BME280;70638;-33.792;151.032;2024-02-15T06:11:05;101514.52;;;19.44;100.00
81162;BME280;70638;-33.792;151.032;2024-02-15T06:13:17;101513.73;;;19.50;100.00
81162;BME280;70638;-33.792;151.032;2024-02-15T06:15:57;101520.57;;;19.58;100.00
81162;BME280;70638;-33.792;151.032;2024-02-15T06:18:18;101521.00;;;19.52;100.00
81162;BME280;70638;-33.792;151.032;2024-02-15T06:20:53;101523.05;;;19.49;100.00
81162;BME280;70638;-33.792;151.032;2024-02-15T06:23:14;101529.00;;;19.53;100.00
81162;BME280;70638;-33.792;151.032;2024-02-15T06:25:52;101520.91;;;19.49;100.00
81162;BME280;70638;-33.792;151.032;2024-02-15T06:28:48;101515.53;;;19.53;100.00
81162;BME280;70638;-33.792;151.032;2024-02-15T06:31:20;101515.71;;;19.52;100.00
81162;BME280;70638;-33.792;151.032;2024-02-15T06:33:50;101514.77;;;19.47;100.00
81162;BME280;70638;-33.792;151.032;2024-02-15T06:36:21;101518.69;;;19.47;100.00
81162;BME280;70638;-33.792;151.032;2024-02-15T06:38:51;101521.51;;;19.50;100.00
81162;BME280;70638;-33.792;151.032;2024-02-15T06:40:47;101521.00;;;19.55;100.00
81162;BME280;70638;-33.792;151.032;2024-02-15T06:43:18;101523.13;;;19.55;100.00
81162;BME280;70638;-33.792;151.032;2024-02-15T06:45:50;101512.98;;;19.55;100.00
81162;BME280;70638;-33.792;151.032;2024-02-15T06:48:20;101513.41;;;19.52;100.00
81162;BME280;70638;-33.792;151.032;2024-02-15T06:50:50;101520.23;;;19.55;100.00
81162;BME280;70638;-33.792;151.032;2024-02-15T06:53:22;101519.89;;;19.58;100.00
81162;BME280;70638;-33.792;151.032;2024-02-15T06:55:52;101518.61;;;19.52;100.00
81162;BME280;70638;-33.792;151.032;2024-02-15T06:58:23;101517.60;;;19.59;100.00
81162;BME280;70638;-33.792;151.032;2024-02-15T07:00:55;101515.19;;;19.59;100.00
81162;BME280;70638;-33.792;151.032;2024-02-15T07:03:26;101512.38;;;19.59;100.00
81162;BME280;70638;-33.792;151.032;2024-02-15T07:05:53;101512.64;;;19.61;100.00
81162;BME280;70638;-33.792;151.032;2024-02-15T07:08:23;101508.27;;;19.59;100.00
81162;BME280;70638;-33.792;151.032;2024-02-15T07:10:58;101508.47;;;19.60;100.00
81162;BME280;70638;-33.792;151.032;2024-02-15T07:13:24;101507.36;;;19.57;100.00
81162;BME280;70638;-33.792;151.032;2024-02-15T07:15:56;101508.98;;;19.60;100.00
81162;BME280;70638;-33.792;151.032;2024-02-15T07:18:28;101506.84;;;19.60;100.00
81162;BME280;70638;-33.792;151.032;2024-02-15T07:21:00;101506.23;;;19.58;100.00
81162;BME280;70638;-33.792;151.032;2024-02-15T07:23:29;101511.86;;;19.59;100.00
81162;BME280;70638;-33.792;151.032;2024-02-15T07:25:57;101512.12;;;19.61;100.00
81162;BME280;70638;-33.792;151.032;2024-02-15T07:28:32;101507.70;;;19.59;100.00
81162;BME280;70638;-33.792;151.032;2024-02-15T07:31:05;101504.12;;;19.63;100.00
81162;BME280;70638;-33.792;151.032;2024-02-15T07:33:34;101508.12;;;19.65;100.00
81162;BME280;70638;-33.792;151.032;2024-02-15T07:35:59;101513.11;;;19.68;100.00
81162;BME280;70638;-33.792;151.032;2024-02-15T07:38:29;101505.88;;;19.62;100.00
81162;BME280;70638;-33.792;151.032;2024-02-15T07:41:00;101499.68;;;19.63;100.00
81162;BME280;70638;-33.792;151.032;2024-02-15T07:43:31;101505.73;;;19.65;100.00
81162;BME280;70638;-33.792;151.032;2024-02-15T07:46:01;101509.98;;;19.64;100.00
81162;BME280;70638;-33.792;151.032;2024-02-15T07:48:31;101508.54;;;19.64;100.00
81162;BME280;70638;-33.792;151.032;2024-02-15T07:51:02;101507.79;;;19.62;100.00
81162;BME280;70638;-33.792;151.032;2024-02-15T07:53:33;101505.91;;;19.58;100.00
81162;BME280;70638;-33.792;151.032;2024-02-15T07:56:03;101507.36;;;19.59;100.00
81162;BME280;70638;-33.792;151.032;2024-02-15T07:58:46;101510.75;;;19.58;100.00
81162;BME280;70638;-33.792;151.032;2024-02-15T08:01:05;101511.97;;;19.57;100.00
81162;BME280;70638;-33.792;151.032;2024-02-15T08:03:35;101517.41;;;19.56;100.00
81162;BME280;70638;-33.792;151.032;2024-02-15T08:06:09;101516.38;;;19.53;100.00
81162;BME280;70638;-33.792;151.032;2024-02-15T08:08:37;101514.16;;;19.51;100.00
81162;BME280;70638;-33.792;151.032;2024-02-15T08:11:06;101515.44;;;19.48;100.00
81162;BME280;70638;-33.792;151.032;2024-02-15T08:13:36;101513.39;;;19.42;100.00
81162;BME280;70638;-33.792;151.032;2024-02-15T08:16:08;101514.66;;;19.37;100.00
81162;BME280;70638;-33.792;151.032;2024-02-15T08:18:39;101518.50;;;19.37;100.00
81162;BME280;70638;-33.792;151.032;2024-02-15T08:21:07;101522.70;;;19.35;100.00
81162;BME280;70638;-33.792;151.032;2024-02-15T08:23:38;101528.65;;;19.37;100.00
81162;BME280;70638;-33.792;151.032;2024-02-15T08:26:12;101534.73;;;19.41;100.00
81162;BME280;70638;-33.792;151.032;2024-02-15T08:28:39;101538.03;;;19.39;100.00
81162;BME280;70638;-33.792;151.032;2024-02-15T08:31:11;101552.36;;;19.37;100.00
81162;BME280;70638;-33.792;151.032;2024-02-15T08:33:41;101552.28;;;19.40;100.00
81162;BME280;70638;-33.792;151.032;2024-02-15T08:36:12;101556.64;;;19.42;100.00
81162;BME280;70638;-33.792;151.032;2024-02-15T08:38:40;101558.84;;;19.37;100.00
81162;BME280;70638;-33.792;151.032;2024-02-15T08:41:28;101558.25;;;19.33;100.00
81162;BME280;70638;-33.792;151.032;2024-02-15T08:43:44;101553.89;;;19.31;100.00
81162;BME280;70638;-33.792;151.032;2024-02-15T08:46:12;101554.74;;;19.34;100.00
81162;BME280;70638;-33.792;151.032;2024-02-15T08:48:46;101557.39;;;19.34;100.00
81162;BME280;70638;-33.792;151.032;2024-02-15T08:51:16;101563.35;;;19.35;100.00
81162;BME280;70638;-33.792;151.032;2024-02-15T08:53:43;101559.55;;;19.38;100.00
81162;BME280;70638;-33.792;151.032;2024-02-15T08:56:13;101565.91;;;19.35;100.00
81162;BME280;70638;-33.792;151.032;2024-02-15T08:58:45;101574.77;;;19.35;100.00
81162;BME280;70638;-33.792;151.032;2024-02-15T09:01:15;101583.41;;;19.37;100.00
81162;BME280;70638;-33.792;151.032;2024-02-15T09:03:47;101577.59;;;19.35;100.00
81162;BME280;70638;-33.792;151.032;2024-02-15T09:06:15;101576.42;;;19.38;100.00
81162;BME280;70638;-33.792;151.032;2024-02-15T09:08:46;101572.34;;;19.38;100.00
81162;BME280;70638;-33.792;151.032;2024-02-15T09:11:16;101571.47;;;19.36;100.00
81162;BME280;70638;-33.792;151.032;2024-02-15T09:13:47;101579.39;;;19.34;100.00
81162;BME280;70638;-33.792;151.032;2024-02-15T09:16:17;101573.52;;;19.33;100.00
81162;BME280;70638;-33.792;151.032;2024-02-15T09:18:48;101573.84;;;19.35;100.00
81162;BME280;70638;-33.792;151.032;2024-02-15T09:21:18;101584.76;;;19.35;100.00
81162;BME280;70638;-33.792;151.032;2024-02-15T09:23:59;101582.30;;;19.34;100.00
81162;BME280;70638;-33.792;151.032;2024-02-15T09:26:19;101578.88;;;19.35;100.00
81162;BME280;70638;-33.792;151.032;2024-02-15T09:28:49;101575.29;;;19.35;100.00
81162;BME280;70638;-33.792;151.032;2024-02-15T09:31:19;101578.62;;;19.34;100.00
81162;BME280;70638;-33.792;151.032;2024-02-15T09:33:49;101587.65;;;19.32;100.00
81162;BME280;70638;-33.792;151.032;2024-02-15T09:36:19;101592.59;;;19.32;100.00
81162;BME280;70638;-33.792;151.032;2024-02-15T09:38:50;101595.34;;;19.34;100.00
81162;BME280;70638;-33.792;151.032;2024-02-15T09:41:20;101594.05;;;19.32;100.00
81162;BME280;70638;-33.792;151.032;2024-02-15T09:43:51;101597.55;;;19.34;100.00
81162;BME280;70638;-33.792;151.032;2024-02-15T09:46:27;101595.19;;;19.35;100.00
81162;BME280;70638;-33.792;151.032;2024-02-15T09:48:56;101597.98;;;19.35;100.00
81162;BME280;70638;-33.792;151.032;2024-02-15T09:51:23;101598.33;;;19.30;100.00
81162;BME280;70638;-33.792;151.032;2024-02-15T09:53:57;101605.16;;;19.33;100.00
81162;BME280;70638;-33.792;151.032;2024-02-15T09:56:26;101614.71;;;19.33;100.00
81162;BME280;70638;-33.792;151.032;2024-02-15T09:58:53;101622.88;;;19.28;100.00
81162;BME280;70638;-33.792;151.032;2024-02-15T10:01:25;101631.81;;;19.26;100.00
81162;BME280;70638;-33.792;151.032;2024-02-15T10:03:55;101631.50;;;19.37;100.00
81162;BME280;70638;-33.792;151.032;2024-02-15T10:06:25;101638.27;;;19.38;100.00
81162;BME280;70638;-33.792;151.032;2024-02-15T10:11:26;101641.69;;;19.44;100.00
81162;BME280;70638;-33.792;151.032;2024-02-15T10:14:21;101651.84;;;19.47;100.00
81162;BME280;70638;-33.792;151.032;2024-02-15T10:16:29;101664.38;;;19.48;100.00
81162;BME280;70638;-33.792;151.032;2024-02-15T10:19:12;101667.53;;;19.48;100.00
81162;BME280;70638;-33.792;151.032;2024-02-15T10:21:31;101667.13;;;19.52;100.00
81162;BME280;70638;-33.792;151.032;2024-02-15T10:24:06;101667.78;;;19.48;100.00
81162;BME280;70638;-33.792;151.032;2024-02-15T10:26:33;101668.16;;;19.52;100.00
81162;BME280;70638;-33.792;151.032;2024-02-15T10:29:11;101667.47;;;19.53;100.00
81162;BME280;70638;-33.792;151.032;2024-02-15T10:31:30;101669.09;;;19.52;100.00
81162;BME280;70638;-33.792;151.032;2024-02-15T10:34:06;101669.25;;;19.53;100.00
81162;BME280;70638;-33.792;151.032;2024-02-15T10:36:32;101668.64;;;19.51;100.00
81162;BME280;70638;-33.792;151.032;2024-02-15T10:39:13;101668.14;;;19.50;100.00
81162;BME280;70638;-33.792;151.032;2024-02-15T10:41:29;101672.50;;;19.52;100.00
81162;BME280;70638;-33.792;151.032;2024-02-15T10:44:00;101671.63;;;19.47;100.00
81162;BME280;70638;-33.792;151.032;2024-02-15T10:46:33;101674.89;;;19.49;100.00
81162;BME280;70638;-33.792;151.032;2024-02-15T10:49:24;101680.44;;;19.53;100.00
81162;BME280;70638;-33.792;151.032;2024-02-15T10:51:31;101683.16;;;19.53;100.00
81162;BME280;70638;-33.792;151.032;2024-02-15T10:54:03;101687.34;;;19.53;100.00
81162;BME280;70638;-33.792;151.032;2024-02-15T10:56:37;101694.77;;;19.53;100.00
81162;BME280;70638;-33.792;151.032;2024-02-15T10:59:10;101697.84;;;19.49;100.00
81162;BME280;70638;-33.792;151.032;2024-02-15T11:01:34;101703.62;;;19.46;100.00
81162;BME280;70638;-33.792;151.032;2024-02-15T11:04:07;101702.59;;;19.43;100.00
81162;BME280;70638;-33.792;151.032;2024-02-15T11:06:38;101700.08;;;19.37;100.00
81162;BME280;70638;-33.792;151.032;2024-02-15T11:09:06;101696.94;;;19.39;100.00
81162;BME280;70638;-33.792;151.032;2024-02-15T11:11:38;101698.86;;;19.31;100.00
81162;BME280;70638;-33.792;151.032;2024-02-15T11:14:25;101701.40;;;19.10;100.00
81162;BME280;70638;-33.792;151.032;2024-02-15T11:16:42;101696.08;;;19.01;100.00
81162;BME280;70638;-33.792;151.032;2024-02-15T11:19:08;101695.27;;;18.93;100.00
81162;BME280;70638;-33.792;151.032;2024-02-15T11:21:56;101695.57;;;18.88;100.00
81162;BME280;70638;-33.792;151.032;2024-02-15T11:24:25;101700.31;;;18.87;100.00
81162;BME280;70638;-33.792;151.032;2024-02-15T11:26:45;101698.34;;;18.83;100.00
81162;BME280;70638;-33.792;151.032;2024-02-15T11:31:55;101708.63;;;18.82;100.00
81162;BME280;70638;-33.792;151.032;2024-02-15T11:34:42;101702.77;;;18.83;100.00
81162;BME280;70638;-33.792;151.032;2024-02-15T11:36:45;101699.19;;;18.80;100.00
81162;BME280;70638;-33.792;151.032;2024-02-15T11:39:39;101697.28;;;18.79;100.00
81162;BME280;70638;-33.792;151.032;2024-02-15T11:44:16;101694.06;;;18.81;100.00
81162;BME280;70638;-33.792;151.032;2024-02-15T11:46:58;101689.35;;;18.88;100.00
81162;BME280;70638;-33.792;151.032;2024-02-15T11:50:02;101687.55;;;18.89;100.00
81162;BME280;70638;-33.792;151.032;2024-02-15T11:51:50;101686.81;;;18.91;100.00
81162;BME280;70638;-33.792;151.032;2024-02-15T11:54:20;101688.00;;;18.91;100.00
81162;BME280;70638;-33.792;151.032;2024-02-15T11:56:49;101687.48;;;18.87;100.00
81162;BME280;70638;-33.792;151.032;2024-02-15T11:59:26;101683.79;;;18.86;100.00
81162;BME280;70638;-33.792;151.032;2024-02-15T12:02:22;101683.86;;;18.84;100.00
81162;BME280;70638;-33.792;151.032;2024-02-15T12:04:53;101685.15;;;18.86;100.00
81162;BME280;70638;-33.792;151.032;2024-02-15T12:07:26;101679.38;;;18.92;100.00
81162;BME280;70638;-33.792;151.032;2024-02-15T12:09:58;101681.59;;;18.89;100.00
81162;BME280;70638;-33.792;151.032;2024-02-15T12:12:25;101683.95;;;18.86;100.00
81162;BME280;70638;-33.792;151.032;2024-02-15T12:15:00;101684.27;;;18.82;100.00
81162;BME280;70638;-33.792;151.032;2024-02-15T12:17:25;101687.12;;;18.89;100.00
81162;BME280;70638;-33.792;151.032;2024-02-15T12:19:20;101692.88;;;18.92;100.00
81162;BME280;70638;-33.792;151.032;2024-02-15T12:21:52;101697.05;;;18.94;100.00
81162;BME280;70638;-33.792;151.032;2024-02-15T12:24:28;101695.59;;;18.94;100.00
81162;BME280;70638;-33.792;151.032;2024-02-15T12:27:01;101691.52;;;18.98;100.00
81162;BME280;70638;-33.792;151.032;2024-02-15T12:29:23;101692.67;;;19.01;100.00
81162;BME280;70638;-33.792;151.032;2024-02-15T12:31:53;101689.50;;;18.98;100.00
81162;BME280;70638;-33.792;151.032;2024-02-15T12:34:24;101688.11;;;18.98;100.00